createdAt,value
2023-01-27T00:01:11.531Z,1.40
2023-01-27T00:03:42.675Z,1.40
2023-01-27T00:06:14.188Z,1.42
2023-01-27T00:08:45.659Z,1.44
2023-01-27T00:11:34.588Z,1.45
2023-01-27T00:14:06.191Z,1.43
2023-01-27T00:16:37.692Z,1.40
2023-01-27T00:19:09.110Z,1.36
2023-01-27T00:21:58.343Z,1.31
2023-01-27T00:24:39.188Z,1.28
2023-01-27T00:27:10.926Z,1.22
2023-01-27T00:29:42.150Z,1.17
2023-01-27T00:32:31.113Z,1.14
2023-01-27T00:35:02.519Z,1.12
2023-01-27T00:37:34.320Z,1.10
2023-01-27T00:40:06.454Z,1.10
2023-01-27T00:42:37.782Z,1.10
2023-01-27T00:45:26.926Z,1.13
2023-01-27T00:47:58.193Z,1.13
2023-01-27T00:50:29.759Z,1.12
2023-01-27T00:53:02.515Z,1.11
2023-01-27T00:55:34.079Z,1.09
2023-01-27T00:58:05.423Z,1.06
2023-01-27T01:00:36.811Z,1.06
2023-01-27T01:03:08.353Z,1.08
2023-01-27T01:05:39.912Z,1.11
2023-01-27T01:08:11.224Z,1.11
2023-01-27T01:10:42.520Z,1.12
2023-01-27T01:13:14.029Z,1.10
2023-01-27T01:15:45.670Z,1.06
2023-01-27T01:18:17.401Z,1.01
2023-01-27T01:20:48.680Z,0.99
2023-01-27T01:23:19.818Z,0.98
2023-01-27T01:25:55.381Z,0.97
2023-01-27T01:28:28.507Z,0.96
2023-01-27T01:31:01.744Z,0.96
2023-01-27T01:33:33.381Z,0.94
2023-01-27T01:36:09.001Z,0.94
2023-01-27T01:38:40.508Z,0.94
2023-01-27T01:41:13.244Z,0.93
2023-01-27T01:43:45.051Z,0.94
2023-01-27T01:46:16.525Z,0.93
2023-01-27T01:48:48.590Z,0.92
2023-01-27T01:51:21.554Z,0.94
2023-01-27T01:53:54.648Z,0.95
2023-01-27T01:56:34.917Z,0.96
2023-01-27T01:59:06.942Z,0.98
2023-01-27T02:01:38.239Z,0.99
2023-01-27T02:04:10.398Z,0.99
2023-01-27T02:06:44.314Z,1.01
2023-01-27T02:09:16.104Z,1.00
2023-01-27T02:11:47.228Z,0.99
2023-01-27T02:14:18.967Z,0.98
2023-01-27T02:16:50.545Z,0.96
2023-01-27T02:19:23.511Z,0.97
2023-01-27T02:21:56.684Z,0.99
2023-01-27T02:24:29.617Z,1.00
2023-01-27T02:27:00.806Z,0.99
2023-01-27T02:29:32.241Z,1.00
2023-01-27T02:32:03.924Z,0.99
2023-01-27T02:34:36.023Z,0.98
2023-01-27T02:37:08.030Z,0.98
2023-01-27T02:39:40.853Z,0.99
2023-01-27T02:42:12.337Z,1.01
2023-01-27T02:44:44.028Z,1.02
2023-01-27T02:47:15.327Z,1.04
2023-01-27T02:49:46.737Z,1.03
2023-01-27T02:52:18.011Z,1.03
2023-01-27T02:54:49.526Z,1.03
2023-01-27T02:57:21.065Z,1.04
2023-01-27T02:59:52.828Z,1.04
2023-01-27T03:02:30.695Z,1.01
2023-01-27T03:05:02.183Z,1.01
2023-01-27T03:07:33.427Z,1.00
2023-01-27T03:10:05.464Z,0.98
2023-01-27T03:12:36.962Z,0.98
2023-01-27T03:15:27.415Z,0.96
2023-01-27T03:18:17.382Z,0.94
2023-01-27T03:20:49.189Z,0.91
2023-01-27T03:23:20.844Z,0.91
2023-01-27T03:25:52.421Z,0.90
2023-01-27T03:28:23.742Z,0.89
2023-01-27T03:30:55.057Z,0.88
2023-01-27T03:33:26.644Z,0.88
2023-01-27T03:36:15.734Z,0.90
2023-01-27T03:39:04.814Z,0.91
2023-01-27T03:41:53.755Z,0.91
2023-01-27T03:44:42.601Z,0.90
2023-01-27T03:47:14.237Z,0.91
2023-01-27T03:49:46.885Z,0.91
2023-01-27T03:52:18.611Z,0.91
2023-01-27T03:54:50.079Z,0.88
2023-01-27T03:57:21.559Z,0.86
2023-01-27T03:59:53.077Z,0.87
2023-01-27T04:02:42.266Z,0.87
2023-01-27T04:05:31.536Z,0.84
2023-01-27T04:08:03.059Z,0.83
2023-01-27T04:10:34.569Z,0.80
2023-01-27T04:13:06.796Z,0.79
2023-01-27T04:15:38.536Z,0.80
2023-01-27T04:18:10.282Z,0.80
2023-01-27T04:20:41.705Z,0.78
2023-01-27T04:23:12.960Z,0.77
2023-01-27T04:25:44.649Z,0.77
2023-01-27T04:28:22.255Z,0.75
2023-01-27T04:31:01.563Z,0.76
2023-01-27T04:33:33.123Z,0.75
2023-01-27T04:36:05.888Z,0.75
2023-01-27T04:38:37.594Z,0.74
2023-01-27T04:41:09.917Z,0.73
2023-01-27T04:43:42.565Z,0.72
2023-01-27T04:46:13.863Z,0.74
2023-01-27T04:48:45.535Z,0.73
2023-01-27T04:51:16.892Z,0.72
2023-01-27T04:53:48.498Z,0.72
2023-01-27T04:56:22.270Z,0.74
2023-01-27T04:58:53.498Z,0.75
2023-01-27T05:01:24.880Z,0.73
2023-01-27T05:03:56.479Z,0.71
2023-01-27T05:06:28.739Z,0.70
2023-01-27T05:09:00.319Z,0.69
2023-01-27T05:11:31.992Z,0.70
2023-01-27T05:14:04.022Z,0.70
2023-01-27T05:16:35.648Z,0.69
2023-01-27T05:19:07.464Z,0.68
2023-01-27T05:21:38.955Z,0.67
2023-01-27T05:24:11.476Z,0.67
2023-01-27T05:26:42.735Z,0.70
2023-01-27T05:29:13.991Z,0.73
2023-01-27T05:31:45.619Z,0.72
2023-01-27T05:34:17.263Z,0.71
2023-01-27T05:36:48.817Z,0.70
2023-01-27T05:39:20.226Z,0.66
2023-01-27T05:41:51.698Z,0.64
2023-01-27T05:44:23.234Z,0.63
2023-01-27T05:46:54.619Z,0.64
2023-01-27T05:49:26.063Z,0.62
2023-01-27T05:51:57.481Z,0.62
2023-01-27T05:54:29.027Z,0.62
2023-01-27T05:57:00.473Z,0.59
2023-01-27T05:59:31.847Z,0.57
2023-01-27T06:02:03.210Z,0.59
2023-01-27T06:04:34.733Z,0.61
2023-01-27T06:07:06.253Z,0.60
2023-01-27T06:09:39.149Z,0.56
2023-01-27T06:12:10.753Z,0.52
2023-01-27T06:14:42.280Z,0.50
2023-01-27T06:17:13.856Z,0.48
2023-01-27T06:19:45.265Z,0.47
2023-01-27T06:22:16.943Z,0.47
2023-01-27T06:24:48.479Z,0.45
2023-01-27T06:27:19.808Z,0.44
2023-01-27T06:29:51.171Z,0.43
2023-01-27T06:32:22.499Z,0.44
2023-01-27T06:34:56.749Z,0.42
2023-01-27T06:37:28.234Z,0.40
2023-01-27T06:39:59.729Z,0.37
2023-01-27T06:42:31.087Z,0.36
2023-01-27T06:45:02.608Z,0.34
2023-01-27T06:47:34.320Z,0.33
2023-01-27T06:50:06.196Z,0.32
2023-01-27T06:52:37.621Z,0.33
2023-01-27T06:55:10.219Z,0.34
2023-01-27T06:57:41.755Z,0.35
2023-01-27T07:00:14.415Z,0.37
2023-01-27T07:02:46.287Z,0.37
2023-01-27T07:05:17.727Z,0.38
2023-01-27T07:07:49.238Z,0.38
2023-01-27T07:10:20.964Z,0.35
2023-01-27T07:12:52.657Z,0.34
2023-01-27T07:15:24.359Z,0.33
2023-01-27T07:17:55.774Z,0.31
2023-01-27T07:20:28.872Z,0.32
2023-01-27T07:23:00.915Z,0.34
2023-01-27T07:25:33.618Z,0.36
2023-01-27T07:28:05.296Z,0.39
2023-01-27T07:30:37.760Z,0.38
2023-01-27T07:33:10.813Z,0.38
2023-01-27T07:35:43.057Z,0.37
2023-01-27T07:38:14.444Z,0.35
2023-01-27T07:40:45.941Z,0.34
2023-01-27T07:43:17.085Z,0.30
2023-01-27T07:45:52.562Z,0.32
2023-01-27T07:48:24.120Z,0.33
2023-01-27T07:50:55.783Z,0.34
2023-01-27T07:53:27.195Z,0.34
2023-01-27T07:56:01.722Z,0.36
2023-01-27T07:58:33.211Z,0.39
2023-01-27T08:01:07.401Z,0.42
2023-01-27T08:03:39.406Z,0.43
2023-01-27T08:06:11.847Z,0.44
2023-01-27T08:08:43.296Z,0.42
2023-01-27T08:11:15.209Z,0.42
2023-01-27T08:13:46.876Z,0.43
2023-01-27T08:16:18.602Z,0.42
2023-01-27T08:18:50.432Z,0.42
2023-01-27T08:21:21.935Z,0.42
2023-01-27T08:23:53.321Z,0.44
2023-01-27T08:26:24.821Z,0.46
2023-01-27T08:28:56.855Z,0.47
2023-01-27T08:31:28.373Z,0.51
2023-01-27T08:33:59.541Z,0.55
2023-01-27T08:36:30.932Z,0.59
2023-01-27T08:39:02.408Z,0.61
2023-01-27T08:41:34.089Z,0.64
2023-01-27T08:44:05.943Z,0.65
2023-01-27T08:46:37.753Z,0.63
2023-01-27T08:49:08.985Z,0.66
2023-01-27T08:51:40.535Z,0.68
2023-01-27T08:54:12.153Z,0.70
2023-01-27T08:56:43.570Z,0.74
2023-01-27T08:59:14.885Z,0.79
2023-01-27T09:01:46.640Z,0.82
2023-01-27T09:04:17.945Z,0.84
2023-01-27T09:06:50.651Z,0.86
2023-01-27T09:09:22.060Z,0.87
2023-01-27T09:11:53.285Z,0.92
2023-01-27T09:14:24.530Z,0.94
2023-01-27T09:16:56.034Z,0.96
2023-01-27T09:19:28.051Z,0.96
2023-01-27T09:21:59.680Z,0.96
2023-01-27T09:24:31.101Z,0.95
2023-01-27T09:27:02.486Z,0.91
2023-01-27T09:29:33.995Z,0.88
2023-01-27T09:32:05.735Z,0.87
2023-01-27T09:34:37.205Z,0.84
2023-01-27T09:37:08.911Z,0.85
2023-01-27T09:39:41.453Z,0.85
2023-01-27T09:42:32.210Z,0.87
2023-01-27T09:45:15.740Z,0.89
2023-01-27T09:47:53.623Z,0.90
2023-01-27T09:50:41.425Z,0.88
2023-01-27T09:53:33.162Z,0.90
2023-01-27T09:56:06.089Z,0.95
2023-01-27T09:58:41.573Z,0.97
2023-01-27T10:01:18.638Z,0.99
2023-01-27T10:03:54.539Z,1.02
2023-01-27T10:06:41.159Z,1.03
2023-01-27T10:09:20.654Z,1.03
2023-01-27T10:11:54.255Z,1.00
2023-01-27T10:14:28.722Z,0.97
2023-01-27T10:17:12.480Z,0.96
2023-01-27T10:19:47.604Z,0.94
2023-01-27T10:22:21.685Z,0.93
2023-01-27T10:25:00.245Z,0.91
2023-01-27T10:27:32.528Z,0.89
2023-01-27T10:30:05.588Z,0.90
2023-01-27T10:32:39.850Z,0.96
2023-01-27T10:35:13.251Z,0.99
2023-01-27T10:37:47.868Z,0.98
2023-01-27T10:40:21.105Z,0.93
2023-01-27T10:42:54.373Z,0.90
2023-01-27T10:45:28.701Z,0.90
2023-01-27T10:48:04.671Z,0.91
2023-01-27T10:50:37.490Z,0.90
2023-01-27T10:53:11.158Z,0.90
2023-01-27T10:55:44.828Z,0.93
2023-01-27T10:58:16.757Z,0.97
2023-01-27T11:03:41.996Z,0.87
2023-01-27T11:06:15.341Z,0.84
2023-01-27T11:08:48.288Z,0.83
2023-01-27T11:11:38.028Z,0.85
2023-01-27T11:14:13.763Z,0.85
2023-01-27T11:16:46.277Z,0.89
2023-01-27T11:19:20.437Z,0.94
2023-01-27T11:22:06.239Z,0.98
2023-01-27T11:24:40.759Z,1.02
2023-01-27T11:27:14.988Z,1.03
2023-01-27T11:29:47.529Z,1.09
2023-01-27T11:32:20.555Z,1.12
2023-01-27T11:34:54.072Z,1.10
2023-01-27T11:37:26.860Z,1.08
2023-01-27T11:39:58.953Z,1.06
2023-01-27T11:42:32.559Z,1.06
2023-01-27T11:45:04.023Z,1.07
2023-01-27T11:47:36.487Z,1.10
2023-01-27T11:50:08.549Z,1.11
2023-01-27T11:52:39.935Z,1.09
2023-01-27T11:55:17.104Z,1.08
2023-01-27T11:57:49.638Z,1.10
2023-01-27T12:00:24.266Z,1.13
2023-01-27T12:02:59.840Z,1.16
2023-01-27T12:05:32.024Z,1.15
2023-01-27T12:08:03.659Z,1.15
2023-01-27T12:10:35.673Z,1.13
2023-01-27T12:13:10.613Z,1.12
2023-01-27T12:15:41.845Z,1.13
2023-01-27T12:18:14.531Z,1.15
2023-01-27T12:20:46.929Z,1.19
2023-01-27T12:23:21.595Z,1.20
2023-01-27T12:25:54.566Z,1.18
2023-01-27T12:28:30.346Z,1.16
2023-01-27T12:31:06.530Z,1.16
2023-01-27T12:33:39.270Z,1.11
2023-01-27T12:36:14.055Z,1.09
2023-01-27T12:38:50.170Z,1.07
2023-01-27T12:41:23.940Z,1.06
2023-01-27T12:44:00.673Z,1.06
2023-01-27T12:46:32.717Z,1.07
2023-01-27T12:49:07.220Z,1.10
2023-01-27T12:51:41.216Z,1.08
2023-01-27T12:54:22.008Z,1.07
2023-01-27T12:56:53.880Z,1.06
2023-01-27T12:59:26.019Z,1.04
2023-01-27T13:02:01.090Z,1.06
2023-01-27T13:04:32.563Z,1.12
2023-01-27T13:07:07.792Z,1.12
2023-01-27T13:09:40.117Z,1.11
2023-01-27T13:12:14.743Z,1.08
2023-01-27T13:14:46.844Z,1.08
2023-01-27T13:17:37.631Z,1.10
2023-01-27T13:20:15.555Z,1.07
2023-01-27T13:22:48.344Z,1.08
2023-01-27T13:25:22.236Z,1.04
2023-01-27T13:27:55.193Z,1.01
2023-01-27T13:30:30.610Z,0.99
2023-01-27T13:33:02.411Z,0.97
2023-01-27T13:35:34.712Z,0.97
2023-01-27T13:38:08.951Z,0.99
2023-01-27T13:40:40.431Z,0.99
2023-01-27T13:43:13.969Z,1.01
2023-01-27T13:45:46.725Z,1.00
2023-01-27T13:48:19.612Z,0.97
2023-01-27T13:50:52.292Z,0.95
2023-01-27T13:53:23.852Z,0.96
2023-01-27T13:55:59.333Z,0.97
2023-01-27T13:58:36.054Z,0.99
2023-01-27T14:01:11.993Z,0.98
2023-01-27T14:03:54.487Z,0.95
2023-01-27T14:06:32.614Z,0.97
2023-01-27T14:09:17.453Z,0.96
2023-01-27T14:11:51.118Z,0.92
2023-01-27T14:14:49.050Z,0.88
2023-01-27T14:17:31.103Z,0.84
2023-01-27T14:20:06.826Z,0.85
2023-01-27T14:22:40.388Z,0.86
2023-01-27T14:25:16.820Z,0.88
2023-01-27T14:27:49.055Z,0.88
2023-01-27T14:30:22.052Z,0.86
2023-01-27T14:32:53.986Z,0.87
2023-01-27T14:35:27.095Z,0.86
2023-01-27T14:38:00.464Z,0.85
2023-01-27T14:40:33.435Z,0.83
2023-01-27T14:43:22.510Z,0.86
2023-01-27T14:45:55.373Z,0.89
2023-01-27T14:48:37.469Z,0.91
2023-01-27T14:51:10.000Z,0.89
2023-01-27T14:53:47.840Z,0.90
2023-01-27T14:56:20.397Z,0.90
2023-01-27T14:58:55.303Z,0.88
2023-01-27T15:01:31.343Z,0.87
2023-01-27T15:04:12.005Z,0.90
2023-01-27T15:06:44.491Z,0.92
2023-01-27T15:09:19.045Z,0.90
2023-01-27T15:11:56.708Z,0.88
2023-01-27T15:14:35.401Z,0.87
2023-01-27T15:17:13.048Z,0.89
2023-01-27T15:19:53.732Z,0.89
2023-01-27T15:22:50.888Z,0.88
2023-01-27T15:25:28.735Z,0.89
2023-01-27T15:28:00.453Z,0.89
2023-01-27T15:30:34.798Z,0.91
2023-01-27T15:33:16.904Z,0.90
2023-01-27T15:35:48.983Z,0.88
2023-01-27T15:38:21.478Z,0.85
2023-01-27T15:40:59.025Z,0.86
2023-01-27T15:43:32.160Z,0.88
2023-01-27T15:46:17.077Z,0.88
2023-01-27T15:48:48.698Z,0.88
2023-01-27T15:51:20.718Z,0.88
2023-01-27T15:53:52.063Z,0.86
2023-01-27T15:56:23.319Z,0.86
2023-01-27T15:58:55.333Z,0.86
2023-01-27T16:01:27.655Z,0.88
2023-01-27T16:04:07.484Z,0.86
2023-01-27T16:06:38.887Z,0.83
2023-01-27T16:09:10.233Z,0.79
2023-01-27T16:11:43.181Z,0.86
2023-01-27T16:14:31.761Z,0.89
2023-01-27T16:17:10.448Z,0.87
2023-01-27T16:19:44.555Z,0.86
2023-01-27T16:22:19.713Z,0.90
2023-01-27T16:24:52.973Z,0.90
2023-01-27T16:27:40.899Z,0.92
2023-01-27T16:30:17.697Z,0.96
2023-01-27T16:32:54.005Z,0.94
2023-01-27T16:35:25.301Z,0.89
2023-01-27T16:38:05.013Z,0.86
2023-01-27T16:40:36.590Z,0.88
2023-01-27T16:43:10.338Z,0.87
2023-01-27T16:45:43.332Z,0.87
2023-01-27T16:48:24.194Z,0.87
2023-01-27T16:50:56.223Z,0.86
2023-01-27T16:53:28.107Z,0.86
2023-01-27T16:56:00.354Z,0.82
2023-01-27T16:58:45.470Z,0.82
2023-01-27T17:01:21.892Z,0.83
2023-01-27T17:03:53.431Z,0.85
2023-01-27T17:06:25.324Z,0.84
2023-01-27T17:08:57.039Z,0.81
2023-01-27T17:11:30.158Z,0.82
2023-01-27T17:14:02.636Z,0.84
2023-01-27T17:16:35.056Z,0.83
2023-01-27T17:19:08.152Z,0.84
2023-01-27T17:21:41.092Z,0.84
2023-01-27T17:24:15.314Z,0.84
2023-01-27T17:26:47.057Z,0.82
2023-01-27T17:29:21.093Z,0.81
2023-01-27T17:31:52.783Z,0.79
2023-01-27T17:34:24.453Z,0.76
2023-01-27T17:37:08.524Z,0.74
2023-01-27T17:39:40.821Z,0.73
2023-01-27T17:42:17.017Z,0.72
2023-01-27T17:44:49.231Z,0.73
2023-01-27T17:47:21.968Z,0.77
2023-01-27T17:49:53.325Z,0.77
2023-01-27T17:52:25.472Z,0.76
2023-01-27T17:55:02.665Z,0.74
2023-01-27T17:57:36.258Z,0.73
2023-01-27T18:00:11.827Z,0.75
2023-01-27T18:02:44.621Z,0.75
2023-01-27T18:05:28.840Z,0.75
2023-01-27T18:08:00.568Z,0.74
2023-01-27T18:10:39.342Z,0.76
2023-01-27T18:13:15.208Z,0.75
2023-01-27T18:15:50.794Z,0.72
2023-01-27T18:18:23.393Z,0.69
2023-01-27T18:21:05.479Z,0.70
2023-01-27T18:23:38.160Z,0.72
2023-01-27T18:26:15.473Z,0.72
2023-01-27T18:28:50.015Z,0.72
2023-01-27T18:31:23.391Z,0.73
2023-01-27T18:33:59.124Z,0.75
2023-01-27T18:36:35.937Z,0.76
2023-01-27T18:39:21.040Z,0.79
2023-01-27T18:41:52.659Z,0.80
2023-01-27T18:44:34.708Z,0.82
2023-01-27T18:47:23.657Z,0.82
2023-01-27T18:49:58.100Z,0.81
2023-01-27T18:52:30.858Z,0.79
2023-01-27T18:55:03.930Z,0.78
2023-01-27T18:57:36.001Z,0.79
2023-01-27T19:00:10.571Z,0.78
2023-01-27T19:02:42.939Z,0.78
2023-01-27T19:05:22.579Z,0.79
2023-01-27T19:07:54.199Z,0.79
2023-01-27T19:10:28.308Z,0.81
2023-01-27T19:13:00.496Z,0.83
2023-01-27T19:15:32.756Z,0.84
2023-01-27T19:18:05.515Z,0.86
2023-01-27T19:20:36.850Z,0.86
2023-01-27T19:23:11.841Z,0.87
2023-01-27T19:25:43.329Z,0.89
2023-01-27T19:28:17.407Z,0.90
2023-01-27T19:30:48.976Z,0.93
2023-01-27T19:33:21.998Z,0.97
2023-01-27T19:35:54.928Z,1.01
2023-01-27T19:38:28.739Z,1.04
2023-01-27T19:41:00.250Z,1.07
2023-01-27T19:43:31.838Z,1.09
2023-01-27T19:46:03.161Z,1.11
2023-01-27T19:48:34.942Z,1.11
2023-01-27T19:51:06.605Z,1.16
2023-01-27T19:58:57.107Z,1.32
2023-01-27T20:01:27.983Z,1.28
2023-01-27T20:03:58.791Z,1.22
2023-01-27T20:06:30.176Z,1.19
2023-01-27T20:09:03.494Z,1.13
2023-01-27T20:11:36.296Z,1.07
2023-01-27T20:14:08.004Z,1.04
2023-01-27T20:16:38.971Z,1.02
2023-01-27T20:19:27.864Z,1.01
2023-01-27T20:22:01.619Z,0.98
2023-01-27T20:24:34.143Z,0.98
2023-01-27T20:27:05.057Z,0.99
2023-01-27T20:29:37.486Z,1.04
2023-01-27T20:32:09.682Z,1.14
2023-01-27T20:34:40.690Z,1.20
2023-01-27T20:37:11.445Z,1.24
2023-01-27T20:39:42.519Z,1.25
2023-01-27T20:42:13.257Z,1.24
2023-01-27T20:44:44.328Z,1.25
2023-01-27T20:47:15.791Z,1.30
2023-01-27T20:49:46.567Z,1.37
2023-01-27T20:52:17.500Z,1.42
2023-01-27T20:54:48.370Z,1.49
2023-01-27T20:57:22.231Z,1.43
2023-01-27T20:59:53.728Z,1.39
2023-01-27T21:02:31.553Z,1.39
2023-01-27T21:05:03.391Z,1.42
2023-01-27T21:07:34.563Z,1.45
2023-01-27T21:10:05.561Z,1.44
2023-01-27T21:12:36.402Z,1.45
2023-01-27T21:15:10.110Z,1.38
2023-01-27T21:17:41.127Z,1.34
2023-01-27T21:20:13.659Z,1.34
2023-01-27T21:22:45.878Z,1.31
2023-01-27T21:25:17.087Z,1.29
2023-01-27T21:27:49.108Z,1.26
2023-01-27T21:30:25.831Z,1.23
2023-01-27T21:32:59.370Z,1.20
2023-01-27T21:35:30.461Z,1.20
2023-01-27T21:38:04.057Z,1.19
2023-01-27T21:40:36.261Z,1.20
2023-01-27T21:48:42.477Z,1.19
2023-01-27T21:51:14.250Z,1.24
2023-01-27T21:53:45.433Z,1.24
2023-01-27T21:56:17.268Z,1.22
2023-01-27T21:58:48.532Z,1.22
2023-01-27T22:01:19.830Z,1.22
2023-01-27T22:03:50.871Z,1.19
2023-01-27T22:06:22.138Z,1.14
2023-01-27T22:08:53.725Z,1.11
2023-01-27T22:11:24.936Z,1.09
2023-01-27T22:13:56.521Z,1.07
2023-01-27T22:16:27.881Z,1.08
2023-01-27T22:18:59.089Z,1.07
2023-01-27T22:21:30.225Z,1.05
2023-01-27T22:24:02.742Z,1.05
2023-01-27T22:26:35.283Z,1.04
2023-01-27T22:29:07.331Z,1.03
2023-01-27T22:31:40.516Z,1.00
2023-01-27T22:34:12.571Z,0.98
2023-01-27T22:36:44.346Z,0.97
2023-01-27T22:39:16.246Z,0.98
2023-01-27T22:41:50.567Z,0.97
2023-01-27T22:44:22.303Z,0.93
2023-01-27T22:46:53.983Z,0.91
2023-01-27T22:49:26.137Z,0.88
2023-01-27T22:51:57.855Z,0.84
2023-01-27T22:54:30.763Z,0.82
2023-01-27T22:57:02.745Z,0.80
2023-01-27T22:59:34.441Z,0.78
2023-01-27T23:02:08.953Z,0.76
2023-01-27T23:04:40.879Z,0.78
2023-01-27T23:07:12.672Z,0.80
2023-01-27T23:09:48.867Z,0.83
2023-01-27T23:12:20.632Z,0.84
2023-01-27T23:14:52.304Z,0.85
2023-01-27T23:17:24.040Z,0.87
2023-01-27T23:19:56.241Z,0.90
2023-01-27T23:22:30.159Z,0.95
2023-01-27T23:25:02.159Z,0.99
2023-01-27T23:27:33.750Z,1.00
2023-01-27T23:30:10.604Z,1.00
2023-01-27T23:32:42.534Z,0.97
2023-01-27T23:35:14.375Z,0.98
2023-01-27T23:37:45.914Z,0.96
2023-01-27T23:40:18.736Z,0.95
2023-01-27T23:42:50.293Z,0.95
2023-01-27T23:45:21.947Z,0.92
2023-01-27T23:47:53.429Z,0.92
2023-01-27T23:50:24.742Z,0.94
2023-01-27T23:52:56.241Z,0.93
2023-01-27T23:55:28.455Z,0.88
2023-01-27T23:57:59.924Z,0.88
